sensor_id;sensor_type;location;lat;lon;timestamp;P1;durP1;ratioP1;P2;durP2;ratioP2
45714;SDS011;31430;61.646;24.704;2022-07-10T00:00:35;2.00;;;1.80;;
45714;SDS011;31430;61.646;24.704;2022-07-10T00:03:01;2.10;;;1.90;;
45714;SDS011;31430;61.646;24.704;2022-07-10T00:05:27;2.03;;;1.83;;
45714;SDS011;31430;61.646;24.704;2022-07-10T00:10:19;2.10;;;1.90;;
45714;SDS011;31430;61.646;24.704;2022-07-10T00:12:46;2.10;;;1.90;;
45714;SDS011;31430;61.646;24.704;2022-07-10T00:15:13;2.13;;;1.92;;
45714;SDS011;31430;61.646;24.704;2022-07-10T00:17:40;2.03;;;1.83;;
45714;SDS011;31430;61.646;24.704;2022-07-10T00:20:07;2.00;;;1.80;;
45714;SDS011;31430;61.646;24.704;2022-07-10T00:22:34;2.03;;;1.83;;
45714;SDS011;31430;61.646;24.704;2022-07-10T00:27:26;2.30;;;2.10;;
45714;SDS011;31430;61.646;24.704;2022-07-10T00:29:52;2.08;;;1.88;;
45714;SDS011;31430;61.646;24.704;2022-07-10T00:32:17;2.20;;;2.00;;
45714;SDS011;31430;61.646;24.704;2022-07-10T00:34:43;2.20;;;2.00;;
45714;SDS011;31430;61.646;24.704;2022-07-10T00:37:08;2.00;;;1.80;;
45714;SDS011;31430;61.646;24.704;2022-07-10T00:39:34;2.10;;;1.90;;
45714;SDS011;31430;61.646;24.704;2022-07-10T00:42:07;2.30;;;2.10;;
45714;SDS011;31430;61.646;24.704;2022-07-10T00:44:33;2.13;;;1.92;;
45714;SDS011;31430;61.646;24.704;2022-07-10T00:46:59;2.10;;;1.90;;
45714;SDS011;31430;61.646;24.704;2022-07-10T00:49:24;2.10;;;1.90;;
45714;SDS011;31430;61.646;24.704;2022-07-10T00:51:50;2.13;;;1.92;;
45714;SDS011;31430;61.646;24.704;2022-07-10T00:56:42;2.35;;;2.15;;
45714;SDS011;31430;61.646;24.704;2022-07-10T00:59:08;2.40;;;2.20;;
45714;SDS011;31430;61.646;24.704;2022-07-10T01:01:35;2.17;;;1.98;;
45714;SDS011;31430;61.646;24.704;2022-07-10T01:04:01;2.10;;;1.90;;
45714;SDS011;31430;61.646;24.704;2022-07-10T01:06:27;2.30;;;2.10;;
45714;SDS011;31430;61.646;24.704;2022-07-10T01:08:53;2.10;;;1.90;;
45714;SDS011;31430;61.646;24.704;2022-07-10T01:11:19;2.22;;;2.03;;
45714;SDS011;31430;61.646;24.704;2022-07-10T01:13:46;2.20;;;2.00;;
45714;SDS011;31430;61.646;24.704;2022-07-10T01:16:12;2.17;;;1.98;;
45714;SDS011;31430;61.646;24.704;2022-07-10T01:18:38;2.15;;;1.95;;
45714;SDS011;31430;61.646;24.704;2022-07-10T01:21:04;2.20;;;2.00;;
45714;SDS011;31430;61.646;24.704;2022-07-10T01:23:30;2.20;;;2.00;;
45714;SDS011;31430;61.646;24.704;2022-07-10T01:25:55;2.25;;;2.05;;
45714;SDS011;31430;61.646;24.704;2022-07-10T01:28:21;2.28;;;2.08;;
45714;SDS011;31430;61.646;24.704;2022-07-10T01:30:47;2.30;;;2.10;;
45714;SDS011;31430;61.646;24.704;2022-07-10T01:33:14;2.28;;;2.08;;
45714;SDS011;31430;61.646;24.704;2022-07-10T01:35:40;2.22;;;2.03;;
45714;SDS011;31430;61.646;24.704;2022-07-10T01:38:06;2.28;;;2.08;;
45714;SDS011;31430;61.646;24.704;2022-07-10T01:40:32;2.10;;;1.90;;
45714;SDS011;31430;61.646;24.704;2022-07-10T01:42:58;2.13;;;1.92;;
45714;SDS011;31430;61.646;24.704;2022-07-10T01:45:23;2.13;;;1.92;;
45714;SDS011;31430;61.646;24.704;2022-07-10T01:47:49;2.33;;;2.13;;
45714;SDS011;31430;61.646;24.704;2022-07-10T01:50:15;2.10;;;1.90;;
45714;SDS011;31430;61.646;24.704;2022-07-10T01:52:41;2.20;;;2.00;;
45714;SDS011;31430;61.646;24.704;2022-07-10T01:55:07;2.00;;;1.80;;
45714;SDS011;31430;61.646;24.704;2022-07-10T01:57:33;2.38;;;2.17;;
45714;SDS011;31430;61.646;24.704;2022-07-10T01:59:58;2.10;;;1.90;;
45714;SDS011;31430;61.646;24.704;2022-07-10T02:02:24;2.10;;;1.90;;
45714;SDS011;31430;61.646;24.704;2022-07-10T02:04:50;2.10;;;1.90;;
45714;SDS011;31430;61.646;24.704;2022-07-10T02:07:17;2.40;;;2.20;;
45714;SDS011;31430;61.646;24.704;2022-07-10T02:09:46;2.17;;;1.98;;
45714;SDS011;31430;61.646;24.704;2022-07-10T02:12:13;2.38;;;2.17;;
45714;SDS011;31430;61.646;24.704;2022-07-10T02:14:39;2.20;;;2.00;;
45714;SDS011;31430;61.646;24.704;2022-07-10T02:17:06;2.17;;;1.98;;
45714;SDS011;31430;61.646;24.704;2022-07-10T02:19:32;2.10;;;1.90;;
45714;SDS011;31430;61.646;24.704;2022-07-10T02:21:59;2.10;;;1.90;;
45714;SDS011;31430;61.646;24.704;2022-07-10T02:26:51;2.20;;;2.00;;
45714;SDS011;31430;61.646;24.704;2022-07-10T02:29:16;2.22;;;2.03;;
45714;SDS011;31430;61.646;24.704;2022-07-10T02:31:42;2.10;;;1.90;;
45714;SDS011;31430;61.646;24.704;2022-07-10T02:34:09;2.17;;;1.98;;
45714;SDS011;31430;61.646;24.704;2022-07-10T02:36:36;2.10;;;1.90;;
45714;SDS011;31430;61.646;24.704;2022-07-10T02:39:04;2.05;;;1.85;;
45714;SDS011;31430;61.646;24.704;2022-07-10T02:41:31;2.10;;;1.90;;
45714;SDS011;31430;61.646;24.704;2022-07-10T02:43:57;2.10;;;1.90;;
45714;SDS011;31430;61.646;24.704;2022-07-10T02:46:22;2.00;;;1.80;;
45714;SDS011;31430;61.646;24.704;2022-07-10T02:48:48;2.10;;;1.90;;
45714;SDS011;31430;61.646;24.704;2022-07-10T02:51:14;2.30;;;2.10;;
45714;SDS011;31430;61.646;24.704;2022-07-10T02:53:40;2.10;;;1.90;;
45714;SDS011;31430;61.646;24.704;2022-07-10T02:56:05;2.10;;;1.90;;
45714;SDS011;31430;61.646;24.704;2022-07-10T02:58:32;2.20;;;2.00;;
45714;SDS011;31430;61.646;24.704;2022-07-10T03:00:58;2.10;;;1.90;;
45714;SDS011;31430;61.646;24.704;2022-07-10T03:03:23;2.10;;;1.90;;
45714;SDS011;31430;61.646;24.704;2022-07-10T03:05:49;2.10;;;1.90;;
45714;SDS011;31430;61.646;24.704;2022-07-10T03:08:15;2.10;;;1.90;;
45714;SDS011;31430;61.646;24.704;2022-07-10T03:10:41;2.10;;;1.90;;
45714;SDS011;31430;61.646;24.704;2022-07-10T03:13:06;2.25;;;2.05;;
45714;SDS011;31430;61.646;24.704;2022-07-10T03:15:32;2.00;;;1.80;;
45714;SDS011;31430;61.646;24.704;2022-07-10T03:17:58;2.20;;;2.00;;
45714;SDS011;31430;61.646;24.704;2022-07-10T03:20:24;2.10;;;1.90;;
45714;SDS011;31430;61.646;24.704;2022-07-10T03:22:50;2.10;;;1.90;;
45714;SDS011;31430;61.646;24.704;2022-07-10T03:25:15;2.30;;;2.10;;
45714;SDS011;31430;61.646;24.704;2022-07-10T03:27:41;2.20;;;2.00;;
45714;SDS011;31430;61.646;24.704;2022-07-10T03:30:07;2.30;;;2.10;;
45714;SDS011;31430;61.646;24.704;2022-07-10T03:32:33;2.00;;;1.80;;
45714;SDS011;31430;61.646;24.704;2022-07-10T03:34:59;2.00;;;1.80;;
45714;SDS011;31430;61.646;24.704;2022-07-10T03:37:25;2.10;;;1.90;;
45714;SDS011;31430;61.646;24.704;2022-07-10T03:39:51;2.00;;;1.80;;
45714;SDS011;31430;61.646;24.704;2022-07-10T03:42:16;2.13;;;1.92;;
45714;SDS011;31430;61.646;24.704;2022-07-10T03:44:42;2.10;;;1.90;;
45714;SDS011;31430;61.646;24.704;2022-07-10T03:47:08;2.10;;;1.90;;
45714;SDS011;31430;61.646;24.704;2022-07-10T03:49:34;1.98;;;1.77;;
45714;SDS011;31430;61.646;24.704;2022-07-10T03:52:00;1.90;;;1.70;;
45714;SDS011;31430;61.646;24.704;2022-07-10T03:54:30;2.00;;;1.80;;
45714;SDS011;31430;61.646;24.704;2022-07-10T03:56:56;2.10;;;1.90;;
45714;SDS011;31430;61.646;24.704;2022-07-10T03:59:41;1.95;;;1.75;;
45714;SDS011;31430;61.646;24.704;2022-07-10T04:02:07;2.17;;;1.98;;
45714;SDS011;31430;61.646;24.704;2022-07-10T04:04:33;2.10;;;1.90;;
45714;SDS011;31430;61.646;24.704;2022-07-10T04:06:58;2.13;;;1.92;;
45714;SDS011;31430;61.646;24.704;2022-07-10T04:09:24;2.08;;;1.88;;
45714;SDS011;31430;61.646;24.704;2022-07-10T04:11:50;2.10;;;1.90;;
45714;SDS011;31430;61.646;24.704;2022-07-10T04:14:15;2.10;;;1.90;;
45714;SDS011;31430;61.646;24.704;2022-07-10T04:16:41;2.10;;;1.90;;
45714;SDS011;31430;61.646;24.704;2022-07-10T04:19:07;2.10;;;1.90;;
45714;SDS011;31430;61.646;24.704;2022-07-10T04:21:32;1.98;;;1.77;;
45714;SDS011;31430;61.646;24.704;2022-07-10T04:23:58;1.92;;;1.73;;
45714;SDS011;31430;61.646;24.704;2022-07-10T04:26:24;2.10;;;1.90;;
45714;SDS011;31430;61.646;24.704;2022-07-10T04:28:49;2.10;;;1.90;;
45714;SDS011;31430;61.646;24.704;2022-07-10T04:31:15;2.08;;;1.88;;
45714;SDS011;31430;61.646;24.704;2022-07-10T04:33:41;1.95;;;1.75;;
45714;SDS011;31430;61.646;24.704;2022-07-10T04:36:07;1.90;;;1.70;;
45714;SDS011;31430;61.646;24.704;2022-07-10T04:38:33;2.20;;;2.00;;
45714;SDS011;31430;61.646;24.704;2022-07-10T04:40:58;2.00;;;1.80;;
45714;SDS011;31430;61.646;24.704;2022-07-10T04:43:24;2.00;;;1.80;;
45714;SDS011;31430;61.646;24.704;2022-07-10T04:45:50;1.92;;;1.73;;
45714;SDS011;31430;61.646;24.704;2022-07-10T04:48:16;1.92;;;1.73;;
45714;SDS011;31430;61.646;24.704;2022-07-10T04:50:42;1.80;;;1.60;;
45714;SDS011;31430;61.646;24.704;2022-07-10T04:53:07;1.92;;;1.73;;
45714;SDS011;31430;61.646;24.704;2022-07-10T04:55:33;1.80;;;1.60;;
45714;SDS011;31430;61.646;24.704;2022-07-10T04:57:59;1.83;;;1.63;;
45714;SDS011;31430;61.646;24.704;2022-07-10T05:00:24;2.00;;;1.80;;
45714;SDS011;31430;61.646;24.704;2022-07-10T05:02:50;1.88;;;1.67;;
45714;SDS011;31430;61.646;24.704;2022-07-10T05:05:16;1.80;;;1.60;;
45714;SDS011;31430;61.646;24.704;2022-07-10T05:07:41;1.83;;;1.63;;
45714;SDS011;31430;61.646;24.704;2022-07-10T05:10:08;1.95;;;1.75;;
45714;SDS011;31430;61.646;24.704;2022-07-10T05:12:34;1.80;;;1.60;;
45714;SDS011;31430;61.646;24.704;2022-07-10T05:17:26;1.83;;;1.63;;
45714;SDS011;31430;61.646;24.704;2022-07-10T05:19:53;1.92;;;1.73;;
45714;SDS011;31430;61.646;24.704;2022-07-10T05:22:21;1.90;;;1.70;;
45714;SDS011;31430;61.646;24.704;2022-07-10T05:24:46;1.90;;;1.70;;
45714;SDS011;31430;61.646;24.704;2022-07-10T05:27:12;1.88;;;1.67;;
45714;SDS011;31430;61.646;24.704;2022-07-10T05:29:38;1.83;;;1.63;;
45714;SDS011;31430;61.646;24.704;2022-07-10T05:32:04;2.08;;;1.88;;
45714;SDS011;31430;61.646;24.704;2022-07-10T05:34:30;1.90;;;1.70;;
45714;SDS011;31430;61.646;24.704;2022-07-10T05:36:55;1.98;;;1.77;;
45714;SDS011;31430;61.646;24.704;2022-07-10T05:39:21;1.92;;;1.73;;
45714;SDS011;31430;61.646;24.704;2022-07-10T05:41:50;1.90;;;1.70;;
45714;SDS011;31430;61.646;24.704;2022-07-10T05:44:16;1.92;;;1.73;;
45714;SDS011;31430;61.646;24.704;2022-07-10T05:46:44;1.90;;;1.70;;
45714;SDS011;31430;61.646;24.704;2022-07-10T05:49:10;1.80;;;1.60;;
45714;SDS011;31430;61.646;24.704;2022-07-10T05:51:36;1.75;;;1.60;;
45714;SDS011;31430;61.646;24.704;2022-07-10T05:54:02;1.90;;;1.70;;
45714;SDS011;31430;61.646;24.704;2022-07-10T05:58:54;1.80;;;1.60;;
45714;SDS011;31430;61.646;24.704;2022-07-10T06:01:23;1.88;;;1.67;;
45714;SDS011;31430;61.646;24.704;2022-07-10T06:03:49;1.95;;;1.75;;
45714;SDS011;31430;61.646;24.704;2022-07-10T06:06:15;2.05;;;1.85;;
45714;SDS011;31430;61.646;24.704;2022-07-10T06:08:41;1.95;;;1.75;;
45714;SDS011;31430;61.646;24.704;2022-07-10T06:11:07;2.00;;;1.80;;
45714;SDS011;31430;61.646;24.704;2022-07-10T06:13:32;1.80;;;1.60;;
45714;SDS011;31430;61.646;24.704;2022-07-10T06:15:58;1.83;;;1.63;;
45714;SDS011;31430;61.646;24.704;2022-07-10T06:18:24;1.85;;;1.65;;
45714;SDS011;31430;61.646;24.704;2022-07-10T06:20:49;1.85;;;1.65;;
45714;SDS011;31430;61.646;24.704;2022-07-10T06:23:15;2.00;;;1.80;;
45714;SDS011;31430;61.646;24.704;2022-07-10T06:25:41;1.85;;;1.65;;
45714;SDS011;31430;61.646;24.704;2022-07-10T06:28:06;1.90;;;1.70;;
45714;SDS011;31430;61.646;24.704;2022-07-10T06:30:32;1.70;;;1.58;;
45714;SDS011;31430;61.646;24.704;2022-07-10T06:32:58;1.90;;;1.70;;
45714;SDS011;31430;61.646;24.704;2022-07-10T06:35:23;1.80;;;1.58;;
45714;SDS011;31430;61.646;24.704;2022-07-10T06:37:49;1.80;;;1.60;;
45714;SDS011;31430;61.646;24.704;2022-07-10T06:40:16;1.90;;;1.70;;
45714;SDS011;31430;61.646;24.704;2022-07-10T06:42:45;1.80;;;1.60;;
45714;SDS011;31430;61.646;24.704;2022-07-10T06:45:10;1.77;;;1.60;;
45714;SDS011;31430;61.646;24.704;2022-07-10T06:47:36;1.75;;;1.55;;
45714;SDS011;31430;61.646;24.704;2022-07-10T06:50:21;1.70;;;1.52;;
45714;SDS011;31430;61.646;24.704;2022-07-10T06:52:47;1.90;;;1.70;;
45714;SDS011;31430;61.646;24.704;2022-07-10T06:55:14;1.80;;;1.60;;
45714;SDS011;31430;61.646;24.704;2022-07-10T06:57:39;1.85;;;1.65;;
45714;SDS011;31430;61.646;24.704;2022-07-10T07:00:05;1.83;;;1.63;;
45714;SDS011;31430;61.646;24.704;2022-07-10T07:02:32;1.70;;;1.50;;
45714;SDS011;31430;61.646;24.704;2022-07-10T07:04:58;1.75;;;1.55;;
45714;SDS011;31430;61.646;24.704;2022-07-10T07:07:24;1.73;;;1.52;;
45714;SDS011;31430;61.646;24.704;2022-07-10T07:09:49;1.88;;;1.67;;
45714;SDS011;31430;61.646;24.704;2022-07-10T07:12:15;1.80;;;1.60;;
45714;SDS011;31430;61.646;24.704;2022-07-10T07:14:42;1.80;;;1.58;;
45714;SDS011;31430;61.646;24.704;2022-07-10T07:19:36;1.88;;;1.67;;
45714;SDS011;31430;61.646;24.704;2022-07-10T07:22:21;1.90;;;1.70;;
45714;SDS011;31430;61.646;24.704;2022-07-10T07:25:06;1.80;;;1.60;;
45714;SDS011;31430;61.646;24.704;2022-07-10T07:27:34;1.80;;;1.58;;
45714;SDS011;31430;61.646;24.704;2022-07-10T07:30:04;1.88;;;1.67;;
45714;SDS011;31430;61.646;24.704;2022-07-10T07:32:39;1.80;;;1.60;;
45714;SDS011;31430;61.646;24.704;2022-07-10T07:40:03;1.80;;;1.60;;
45714;SDS011;31430;61.646;24.704;2022-07-10T07:42:30;1.80;;;1.60;;
45714;SDS011;31430;61.646;24.704;2022-07-10T07:44:56;1.73;;;1.52;;
45714;SDS011;31430;61.646;24.704;2022-07-10T07:47:21;1.70;;;1.50;;
45714;SDS011;31430;61.646;24.704;2022-07-10T07:49:47;1.70;;;1.50;;
45714;SDS011;31430;61.646;24.704;2022-07-10T07:52:12;1.75;;;1.58;;
45714;SDS011;31430;61.646;24.704;2022-07-10T07:57:05;1.90;;;1.70;;
45714;SDS011;31430;61.646;24.704;2022-07-10T07:59:31;1.70;;;1.50;;
45714;SDS011;31430;61.646;24.704;2022-07-10T08:01:56;1.77;;;1.55;;
45714;SDS011;31430;61.646;24.704;2022-07-10T08:04:22;1.70;;;1.50;;
45714;SDS011;31430;61.646;24.704;2022-07-10T08:06:48;1.70;;;1.50;;
45714;SDS011;31430;61.646;24.704;2022-07-10T08:09:17;1.70;;;1.40;;
45714;SDS011;31430;61.646;24.704;2022-07-10T08:11:43;1.77;;;1.50;;
45714;SDS011;31430;61.646;24.704;2022-07-10T08:14:09;1.70;;;1.40;;
45714;SDS011;31430;61.646;24.704;2022-07-10T08:16:34;1.70;;;1.45;;
45714;SDS011;31430;61.646;24.704;2022-07-10T08:19:00;1.70;;;1.50;;
45714;SDS011;31430;61.646;24.704;2022-07-10T08:21:26;1.70;;;1.55;;
45714;SDS011;31430;61.646;24.704;2022-07-10T08:23:51;1.70;;;1.48;;
45714;SDS011;31430;61.646;24.704;2022-07-10T08:26:18;1.70;;;1.40;;
45714;SDS011;31430;61.646;24.704;2022-07-10T08:28:44;1.73;;;1.48;;
45714;SDS011;31430;61.646;24.704;2022-07-10T08:31:10;1.90;;;1.50;;
45714;SDS011;31430;61.646;24.704;2022-07-10T08:33:35;1.70;;;1.40;;
45714;SDS011;31430;61.646;24.704;2022-07-10T08:36:01;1.70;;;1.50;;
45714;SDS011;31430;61.646;24.704;2022-07-10T08:38:27;1.70;;;1.50;;
45714;SDS011;31430;61.646;24.704;2022-07-10T08:40:53;1.70;;;1.50;;
45714;SDS011;31430;61.646;24.704;2022-07-10T08:43:22;1.70;;;1.40;;
45714;SDS011;31430;61.646;24.704;2022-07-10T08:45:50;1.70;;;1.40;;
45714;SDS011;31430;61.646;24.704;2022-07-10T08:48:18;1.70;;;1.48;;
45714;SDS011;31430;61.646;24.704;2022-07-10T08:50:48;1.67;;;1.40;;
45714;SDS011;31430;61.646;24.704;2022-07-10T08:53:29;1.60;;;1.35;;
45714;SDS011;31430;61.646;24.704;2022-07-10T08:55:56;1.70;;;1.40;;
45714;SDS011;31430;61.646;24.704;2022-07-10T08:58:23;1.70;;;1.40;;
45714;SDS011;31430;61.646;24.704;2022-07-10T09:00:49;1.65;;;1.40;;
45714;SDS011;31430;61.646;24.704;2022-07-10T09:03:15;1.70;;;1.40;;
45714;SDS011;31430;61.646;24.704;2022-07-10T09:05:41;1.70;;;1.40;;
45714;SDS011;31430;61.646;24.704;2022-07-10T09:11:15;1.70;;;1.40;;
45714;SDS011;31430;61.646;24.704;2022-07-10T09:13:51;1.60;;;1.35;;
45714;SDS011;31430;61.646;24.704;2022-07-10T09:18:47;1.70;;;1.48;;
45714;SDS011;31430;61.646;24.704;2022-07-10T09:21:13;1.60;;;1.40;;
45714;SDS011;31430;61.646;24.704;2022-07-10T09:23:39;1.70;;;1.50;;
45714;SDS011;31430;61.646;24.704;2022-07-10T09:26:05;1.70;;;1.42;;
45714;SDS011;31430;61.646;24.704;2022-07-10T09:28:30;1.70;;;1.45;;
45714;SDS011;31430;61.646;24.704;2022-07-10T09:30:56;1.70;;;1.40;;
45714;SDS011;31430;61.646;24.704;2022-07-10T09:33:22;1.60;;;1.40;;
45714;SDS011;31430;61.646;24.704;2022-07-10T09:41:14;1.55;;;1.30;;
45714;SDS011;31430;61.646;24.704;2022-07-10T09:43:44;1.60;;;1.30;;
45714;SDS011;31430;61.646;24.704;2022-07-10T09:46:14;1.58;;;1.30;;
45714;SDS011;31430;61.646;24.704;2022-07-10T09:48:41;1.60;;;1.30;;
45714;SDS011;31430;61.646;24.704;2022-07-10T09:53:44;1.60;;;1.30;;
45714;SDS011;31430;61.646;24.704;2022-07-10T09:56:10;1.60;;;1.33;;
45714;SDS011;31430;61.646;24.704;2022-07-10T09:58:37;1.60;;;1.40;;
45714;SDS011;31430;61.646;24.704;2022-07-10T10:01:04;1.60;;;1.30;;
45714;SDS011;31430;61.646;24.704;2022-07-10T10:03:35;1.60;;;1.30;;
45714;SDS011;31430;61.646;24.704;2022-07-10T10:06:06;1.60;;;1.30;;
45714;SDS011;31430;61.646;24.704;2022-07-10T10:11:26;1.60;;;1.35;;
45714;SDS011;31430;61.646;24.704;2022-07-10T10:13:53;1.55;;;1.30;;
45714;SDS011;31430;61.646;24.704;2022-07-10T10:16:20;1.52;;;1.30;;
45714;SDS011;31430;61.646;24.704;2022-07-10T10:18:46;1.65;;;1.48;;
45714;SDS011;31430;61.646;24.704;2022-07-10T10:21:31;1.60;;;1.30;;
45714;SDS011;31430;61.646;24.704;2022-07-10T10:23:58;1.52;;;1.35;;
45714;SDS011;31430;61.646;24.704;2022-07-10T10:26:26;1.40;;;1.20;;
45714;SDS011;31430;61.646;24.704;2022-07-10T10:28:52;1.63;;;1.33;;
45714;SDS011;31430;61.646;24.704;2022-07-10T10:31:26;1.50;;;1.27;;
45714;SDS011;31430;61.646;24.704;2022-07-10T10:33:54;1.58;;;1.30;;
45714;SDS011;31430;61.646;24.704;2022-07-10T10:41:50;1.40;;;1.20;;
45714;SDS011;31430;61.646;24.704;2022-07-10T10:44:19;1.42;;;1.20;;
45714;SDS011;31430;61.646;24.704;2022-07-10T10:49:15;1.45;;;1.20;;
45714;SDS011;31430;61.646;24.704;2022-07-10T11:00:01;1.45;;;1.20;;
45714;SDS011;31430;61.646;24.704;2022-07-10T11:02:32;1.60;;;1.30;;
45714;SDS011;31430;61.646;24.704;2022-07-10T11:08:02;1.50;;;1.20;;
45714;SDS011;31430;61.646;24.704;2022-07-10T11:15:26;1.45;;;1.23;;
45714;SDS011;31430;61.646;24.704;2022-07-10T11:17:55;1.52;;;1.30;;
45714;SDS011;31430;61.646;24.704;2022-07-10T11:20:22;1.48;;;1.20;;
45714;SDS011;31430;61.646;24.704;2022-07-10T11:25:43;1.60;;;1.30;;
45714;SDS011;31430;61.646;24.704;2022-07-10T11:28:26;1.60;;;1.30;;
45714;SDS011;31430;61.646;24.704;2022-07-10T11:31:11;1.40;;;1.20;;
45714;SDS011;31430;61.646;24.704;2022-07-10T11:33:40;1.40;;;1.20;;
45714;SDS011;31430;61.646;24.704;2022-07-10T11:36:16;1.40;;;1.20;;
45714;SDS011;31430;61.646;24.704;2022-07-10T11:38:44;1.45;;;1.20;;
45714;SDS011;31430;61.646;24.704;2022-07-10T11:41:16;1.50;;;1.20;;
45714;SDS011;31430;61.646;24.704;2022-07-10T11:43:50;1.40;;;1.20;;
45714;SDS011;31430;61.646;24.704;2022-07-10T11:46:26;1.60;;;1.30;;
45714;SDS011;31430;61.646;24.704;2022-07-10T11:48:53;1.50;;;1.23;;
45714;SDS011;31430;61.646;24.704;2022-07-10T11:56:37;1.50;;;1.20;;
45714;SDS011;31430;61.646;24.704;2022-07-10T11:59:07;1.60;;;1.30;;
45714;SDS011;31430;61.646;24.704;2022-07-10T12:01:41;1.55;;;1.30;;
45714;SDS011;31430;61.646;24.704;2022-07-10T12:06:41;1.50;;;1.30;;
45714;SDS011;31430;61.646;24.704;2022-07-10T12:09:09;1.55;;;1.30;;
45714;SDS011;31430;61.646;24.704;2022-07-10T12:11:38;1.52;;;1.30;;
45714;SDS011;31430;61.646;24.704;2022-07-10T12:14:13;1.67;;;1.33;;
45714;SDS011;31430;61.646;24.704;2022-07-10T12:16:41;1.40;;;1.20;;
45714;SDS011;31430;61.646;24.704;2022-07-10T12:19:07;1.50;;;1.30;;
45714;SDS011;31430;61.646;24.704;2022-07-10T12:21:35;1.50;;;1.23;;
45714;SDS011;31430;61.646;24.704;2022-07-10T12:24:01;1.50;;;1.27;;
45714;SDS011;31430;61.646;24.704;2022-07-10T12:26:32;1.48;;;1.20;;
45714;SDS011;31430;61.646;24.704;2022-07-10T12:28:59;1.55;;;1.30;;
45714;SDS011;31430;61.646;24.704;2022-07-10T12:36:22;1.65;;;1.33;;
45714;SDS011;31430;61.646;24.704;2022-07-10T12:41:23;1.58;;;1.30;;
45714;SDS011;31430;61.646;24.704;2022-07-10T12:43:50;1.60;;;1.30;;
45714;SDS011;31430;61.646;24.704;2022-07-10T12:46:17;1.58;;;1.33;;
45714;SDS011;31430;61.646;24.704;2022-07-10T12:51:34;1.60;;;1.35;;
45714;SDS011;31430;61.646;24.704;2022-07-10T12:54:29;1.60;;;1.40;;
45714;SDS011;31430;61.646;24.704;2022-07-10T12:56:59;1.45;;;1.20;;
45714;SDS011;31430;61.646;24.704;2022-07-10T12:59:26;1.50;;;1.30;;
45714;SDS011;31430;61.646;24.704;2022-07-10T13:01:53;1.58;;;1.30;;
45714;SDS011;31430;61.646;24.704;2022-07-10T13:04:26;1.60;;;1.33;;
45714;SDS011;31430;61.646;24.704;2022-07-10T13:06:52;1.60;;;1.30;;
45714;SDS011;31430;61.646;24.704;2022-07-10T13:09:23;1.60;;;1.35;;
45714;SDS011;31430;61.646;24.704;2022-07-10T13:11:51;1.60;;;1.30;;
45714;SDS011;31430;61.646;24.704;2022-07-10T13:14:17;1.60;;;1.38;;
45714;SDS011;31430;61.646;24.704;2022-07-10T13:16:43;1.52;;;1.30;;
45714;SDS011;31430;61.646;24.704;2022-07-10T13:19:09;1.60;;;1.40;;
45714;SDS011;31430;61.646;24.704;2022-07-10T13:21:35;1.50;;;1.30;;
45714;SDS011;31430;61.646;24.704;2022-07-10T13:24:01;1.40;;;1.20;;
45714;SDS011;31430;61.646;24.704;2022-07-10T13:26:28;1.60;;;1.30;;
45714;SDS011;31430;61.646;24.704;2022-07-10T13:28:55;1.50;;;1.30;;
45714;SDS011;31430;61.646;24.704;2022-07-10T13:31:21;1.60;;;1.30;;
45714;SDS011;31430;61.646;24.704;2022-07-10T13:36:12;1.60;;;1.35;;
45714;SDS011;31430;61.646;24.704;2022-07-10T13:38:38;1.60;;;1.30;;
45714;SDS011;31430;61.646;24.704;2022-07-10T13:41:04;1.63;;;1.35;;
45714;SDS011;31430;61.646;24.704;2022-07-10T13:43:30;1.58;;;1.30;;
45714;SDS011;31430;61.646;24.704;2022-07-10T13:45:56;1.60;;;1.30;;
45714;SDS011;31430;61.646;24.704;2022-07-10T13:48:24;1.60;;;1.38;;
45714;SDS011;31430;61.646;24.704;2022-07-10T13:50:50;1.48;;;1.20;;
45714;SDS011;31430;61.646;24.704;2022-07-10T13:55:42;1.48;;;1.20;;
45714;SDS011;31430;61.646;24.704;2022-07-10T13:58:08;1.50;;;1.20;;
45714;SDS011;31430;61.646;24.704;2022-07-10T14:00:35;1.30;;;1.10;;
45714;SDS011;31430;61.646;24.704;2022-07-10T14:03:01;1.40;;;1.10;;
45714;SDS011;31430;61.646;24.704;2022-07-10T14:05:27;1.48;;;1.20;;
45714;SDS011;31430;61.646;24.704;2022-07-10T14:10:19;1.55;;;1.38;;
45714;SDS011;31430;61.646;24.704;2022-07-10T14:12:45;1.40;;;1.20;;
45714;SDS011;31430;61.646;24.704;2022-07-10T14:15:10;1.50;;;1.20;;
45714;SDS011;31430;61.646;24.704;2022-07-10T14:17:36;1.40;;;1.20;;
45714;SDS011;31430;61.646;24.704;2022-07-10T14:20:02;1.50;;;1.20;;
45714;SDS011;31430;61.646;24.704;2022-07-10T14:22:28;1.50;;;1.20;;
45714;SDS011;31430;61.646;24.704;2022-07-10T14:24:55;1.52;;;1.30;;
45714;SDS011;31430;61.646;24.704;2022-07-10T14:27:21;1.48;;;1.20;;
45714;SDS011;31430;61.646;24.704;2022-07-10T14:29:49;1.50;;;1.23;;
45714;SDS011;31430;61.646;24.704;2022-07-10T14:32:15;1.40;;;1.20;;
45714;SDS011;31430;61.646;24.704;2022-07-10T14:34:41;1.50;;;1.20;;
45714;SDS011;31430;61.646;24.704;2022-07-10T14:37:07;1.40;;;1.20;;
45714;SDS011;31430;61.646;24.704;2022-07-10T14:39:32;1.50;;;1.30;;
45714;SDS011;31430;61.646;24.704;2022-07-10T14:41:58;1.55;;;1.30;;
45714;SDS011;31430;61.646;24.704;2022-07-10T14:44:24;1.50;;;1.30;;
45714;SDS011;31430;61.646;24.704;2022-07-10T14:46:49;1.58;;;1.30;;
45714;SDS011;31430;61.646;24.704;2022-07-10T14:49:15;1.58;;;1.30;;
45714;SDS011;31430;61.646;24.704;2022-07-10T14:51:41;1.63;;;1.30;;
45714;SDS011;31430;61.646;24.704;2022-07-10T14:56:33;1.45;;;1.23;;
45714;SDS011;31430;61.646;24.704;2022-07-10T14:58:58;1.58;;;1.30;;
45714;SDS011;31430;61.646;24.704;2022-07-10T15:01:24;1.60;;;1.30;;
45714;SDS011;31430;61.646;24.704;2022-07-10T15:03:50;1.60;;;1.30;;
45714;SDS011;31430;61.646;24.704;2022-07-10T15:06:15;1.60;;;1.30;;
45714;SDS011;31430;61.646;24.704;2022-07-10T15:08:41;1.52;;;1.30;;
45714;SDS011;31430;61.646;24.704;2022-07-10T15:11:06;1.60;;;1.33;;
45714;SDS011;31430;61.646;24.704;2022-07-10T15:13:32;1.50;;;1.20;;
45714;SDS011;31430;61.646;24.704;2022-07-10T15:15:58;1.60;;;1.30;;
45714;SDS011;31430;61.646;24.704;2022-07-10T15:18:25;1.48;;;1.23;;
45714;SDS011;31430;61.646;24.704;2022-07-10T15:23:17;1.48;;;1.20;;
45714;SDS011;31430;61.646;24.704;2022-07-10T15:25:43;1.63;;;1.40;;
45714;SDS011;31430;61.646;24.704;2022-07-10T15:28:09;1.60;;;1.30;;
45714;SDS011;31430;61.646;24.704;2022-07-10T15:33:02;1.65;;;1.30;;
45714;SDS011;31430;61.646;24.704;2022-07-10T15:35:28;1.50;;;1.30;;
45714;SDS011;31430;61.646;24.704;2022-07-10T15:37:54;1.67;;;1.42;;
45714;SDS011;31430;61.646;24.704;2022-07-10T15:40:19;1.63;;;1.33;;
45714;SDS011;31430;61.646;24.704;2022-07-10T15:42:45;1.50;;;1.30;;
45714;SDS011;31430;61.646;24.704;2022-07-10T15:45:11;1.60;;;1.35;;
45714;SDS011;31430;61.646;24.704;2022-07-10T15:47:36;1.70;;;1.40;;
45714;SDS011;31430;61.646;24.704;2022-07-10T15:50:03;1.60;;;1.35;;
45714;SDS011;31430;61.646;24.704;2022-07-10T15:52:29;1.58;;;1.30;;
45714;SDS011;31430;61.646;24.704;2022-07-10T15:54:55;1.60;;;1.30;;
45714;SDS011;31430;61.646;24.704;2022-07-10T15:57:21;1.70;;;1.40;;
45714;SDS011;31430;61.646;24.704;2022-07-10T15:59:46;1.70;;;1.40;;
45714;SDS011;31430;61.646;24.704;2022-07-10T16:02:12;1.60;;;1.30;;
45714;SDS011;31430;61.646;24.704;2022-07-10T16:07:04;1.52;;;1.30;;
45714;SDS011;31430;61.646;24.704;2022-07-10T16:09:30;1.50;;;1.20;;
45714;SDS011;31430;61.646;24.704;2022-07-10T16:11:56;1.55;;;1.30;;
45714;SDS011;31430;61.646;24.704;2022-07-10T16:14:21;1.58;;;1.27;;